Time;durP1;ratioP1;P1;durP2;ratioP2;P2;SDS_P1;SDS_P2;PMS_P1;PMS_P2;Temp;Humidity;BMP_temperature;BMP_pressure;BME280_temperature;BME280_humidity;BME280_pressure;Samples;Min_cycle;Max_cycle;Signal;HPM_P1;HPM_P2
2022/01/18 00:01:20;;;;;;;26.88;5.50;;;7.20;99.90;;;;;;5135407;27;20054;-77
2022/01/18 00:03:45;;;;;;;29.52;5.30;;;7.20;99.90;;;;;;5135810;27;20047;-76
2022/01/18 00:06:11;;;;;;;26.92;6.15;;;7.20;99.90;;;;;;5134368;27;20066;-76
2022/01/18 00:08:38;;;;;;;27.58;5.82;;;7.20;99.90;;;;;;5135475;27;20135;-75
2022/01/18 00:11:04;;;;;;;27.60;6.65;;;7.20;99.90;;;;;;5135592;27;20051;-77
2022/01/18 00:13:44;;;;;;;28.13;6.60;;;7.30;99.90;;;;;;5135331;27;20982;-77
2022/01/18 00:19:02;;;;;;;25.83;6.20;;;7.30;99.90;;;;;;5135413;27;20130;-76
2022/01/18 00:21:38;;;;;;;28.88;6.60;;;7.20;99.90;;;;;;5134959;27;20506;-75
2022/01/18 00:24:06;;;;;;;23.95;5.75;;;7.30;99.90;;;;;;5135098;27;20495;-77
2022/01/18 00:26:33;;;;;;;27.80;5.97;;;7.30;99.90;;;;;;5134338;27;20103;-76
2022/01/18 00:29:07;;;;;;;27.60;6.75;;;7.30;99.90;;;;;;5135504;27;20054;-77
2022/01/18 00:34:10;;;;;;;28.80;6.45;;;7.30;99.90;;;;;;5135137;27;20411;-77
2022/01/18 00:39:22;;;;;;;27.05;6.03;;;7.30;99.90;;;;;;5101464;27;20054;-77
2022/01/18 00:41:48;;;;;;;28.08;6.47;;;7.30;99.90;;;;;;5135437;27;20043;-77
2022/01/18 00:44:14;;;;;;;29.48;6.70;;;7.30;99.90;;;;;;5132860;27;20085;-72
2022/01/18 00:46:40;;;;;;;29.02;6.38;;;7.30;99.90;;;;;;5134694;27;20096;-77
2022/01/18 00:49:07;;;;;;;31.55;7.45;;;7.30;99.90;;;;;;5135221;27;20147;-77
2022/01/18 00:51:38;;;;;;;28.30;6.72;;;7.30;99.90;;;;;;5133915;27;20668;-77
2022/01/18 00:54:06;;;;;;;30.40;6.55;;;7.20;99.90;;;;;;5135091;27;20100;-77
2022/01/18 00:56:32;;;;;;;31.63;7.40;;;7.20;99.90;;;;;;5133919;27;20078;-76
2022/01/18 00:59:00;;;;;;;28.45;6.30;;;7.20;99.90;;;;;;5134753;27;20035;-77
2022/01/18 01:01:28;;;;;;;34.75;6.63;;;7.30;99.90;;;;;;5134050;27;20090;-77
2022/01/18 01:03:58;;;;;;;32.47;7.82;;;7.20;99.90;;;;;;5134757;27;20039;-76
2022/01/18 01:06:24;;;;;;;31.27;6.47;;;7.20;99.90;;;;;;5132405;27;20047;-77
2022/01/18 01:08:51;;;;;;;36.83;8.25;;;7.30;99.90;;;;;;5134680;27;20092;-77
2022/01/18 01:11:18;;;;;;;30.17;7.00;;;7.20;99.90;;;;;;5133915;27;20047;-72
2022/01/18 01:13:48;;;;;;;33.25;7.25;;;7.30;99.90;;;;;;5134552;27;20468;-77
2022/01/18 01:43:22;;;;;;;28.98;6.93;;;7.20;99.90;;;;;;5134153;27;20051;-77
2022/01/18 01:45:49;;;;;;;37.35;8.45;;;7.20;99.90;;;;;;5133854;27;20054;-76
2022/01/18 01:48:17;;;;;;;32.28;7.45;;;7.20;99.90;;;;;;5133140;27;20499;-76
2022/01/18 01:50:49;;;;;;;26.25;6.90;;;7.20;99.90;;;;;;5132943;27;20043;-77
2022/01/18 01:53:18;;;;;;;34.35;8.23;;;7.20;99.90;;;;;;5133971;27;20496;-77
2022/01/18 01:55:44;;;;;;;32.55;8.10;;;7.10;99.90;;;;;;5132623;27;20042;-76
2022/01/18 01:58:10;;;;;;;31.73;7.60;;;7.20;99.90;;;;;;5133354;27;20043;-76
2022/01/18 02:00:48;;;;;;;29.83;7.07;;;7.20;99.90;;;;;;5132921;27;20042;-76
2022/01/18 02:03:15;;;;;;;39.13;8.60;;;7.10;99.90;;;;;;5133957;27;20089;-76
2022/01/18 02:05:41;;;;;;;32.40;8.38;;;7.10;99.90;;;;;;5132811;27;20047;-76
2022/01/18 02:08:07;;;;;;;36.25;8.75;;;7.10;99.90;;;;;;5133084;27;20043;-76
2022/01/18 02:10:38;;;;;;;29.90;7.18;;;7.10;99.90;;;;;;5132837;27;20156;-76
2022/01/18 02:13:05;;;;;;;28.67;8.20;;;7.10;99.90;;;;;;5133706;27;20043;-76
2022/01/18 02:15:31;;;;;;;35.47;9.50;;;7.00;99.90;;;;;;5132676;27;20039;-76
2022/01/18 02:23:29;;;;;;;28.23;7.63;;;7.00;99.90;;;;;;5132612;28;20568;-75
2022/01/18 02:25:55;;;;;;;29.58;7.05;;;6.90;99.90;;;;;;5133519;27;20407;-76
2022/01/18 02:28:23;;;;;;;30.85;7.10;;;6.90;99.90;;;;;;5132954;27;20042;-76
2022/01/18 02:30:48;;;;;;;29.70;8.07;;;6.90;99.90;;;;;;5131522;28;20104;-76
2022/01/18 02:33:14;;;;;;;24.20;7.22;;;6.90;99.90;;;;;;5133259;27;20100;-76
2022/01/18 02:35:40;;;;;;;23.83;7.18;;;6.90;99.90;;;;;;5132597;28;20047;-76
2022/01/18 02:38:06;;;;;;;28.27;7.90;;;6.90;99.90;;;;;;5133057;28;20039;-76
2022/01/18 02:40:33;;;;;;;24.83;6.97;;;6.90;99.90;;;;;;5132853;28;20499;-76
2022/01/18 02:43:46;;;;;;;27.75;7.30;;;6.80;99.90;;;;;;5112899;28;20050;-76
2022/01/18 02:45:47;;;;;;;27.25;6.70;;;6.90;99.90;;;;;;5113359;28;20055;-77
2022/01/18 02:48:14;;;;;;;27.50;7.20;;;6.90;99.90;;;;;;5132423;27;20078;-76
2022/01/18 02:50:40;;;;;;;27.80;6.50;;;6.90;99.90;;;;;;5132432;27;20051;-76
2022/01/18 02:53:06;;;;;;;27.08;7.15;;;6.80;99.90;;;;;;5132760;27;20058;-76
2022/01/18 02:55:32;;;;;;;28.70;7.57;;;6.80;99.90;;;;;;5132634;28;20070;-75
2022/01/18 02:58:04;;;;;;;28.63;6.93;;;6.70;99.90;;;;;;5132843;28;20035;-75
2022/01/18 03:03:12;;;;;;;29.83;7.18;;;6.80;99.90;;;;;;5132803;27;20086;-72
2022/01/18 03:03:28;;;;;;;26.98;6.95;;;6.80;99.90;;;;;;5116284;28;20044;-77
2022/01/18 03:05:55;;;;;;;32.20;7.25;;;6.80;99.90;;;;;;5120679;27;20061;-76
2022/01/18 03:08:21;;;;;;;31.50;8.10;;;6.80;99.90;;;;;;5137056;27;20488;-76
2022/01/18 03:10:47;;;;;;;28.05;7.10;;;6.80;99.90;;;;;;5135709;27;20086;-76
2022/01/18 03:13:13;;;;;;;29.45;7.75;;;6.70;99.90;;;;;;5136363;27;20050;-76
2022/01/18 03:15:38;;;;;;;29.52;8.52;;;6.70;99.90;;;;;;5135992;27;20051;-75
2022/01/18 03:18:08;;;;;;;30.67;8.82;;;6.70;99.90;;;;;;5136626;27;20046;-76
2022/01/18 03:20:35;;;;;;;31.77;8.63;;;6.70;99.90;;;;;;5135630;27;20047;-72
2022/01/18 03:23:01;;;;;;;33.90;9.65;;;6.70;99.90;;;;;;5136524;27;20400;-76
2022/01/18 03:28:05;;;;;;;36.75;9.73;;;6.60;99.90;;;;;;5135567;27;20130;-76
2022/01/18 03:30:54;;;;;;;36.47;10.27;;;6.50;99.90;;;;;;5135962;27;20043;-76
2022/01/18 03:33:23;;;;;;;29.77;9.38;;;6.50;99.90;;;;;;5136226;27;20448;-76
2022/01/18 03:35:50;;;;;;;36.13;10.73;;;6.50;99.90;;;;;;5135920;27;20047;-76
2022/01/18 03:38:19;;;;;;;28.63;9.23;;;6.50;99.90;;;;;;5136366;27;20044;-76
2022/01/18 03:40:44;;;;;;;37.45;10.60;;;6.50;99.90;;;;;;5135588;27;20046;-76
2022/01/18 03:43:12;;;;;;;37.58;11.20;;;6.40;99.90;;;;;;5136132;27;20039;-76
2022/01/18 03:45:43;;;;;;;38.30;10.13;;;6.40;99.90;;;;;;5135469;27;20125;-76
2022/01/18 03:48:18;;;;;;;34.90;10.85;;;6.40;99.90;;;;;;5136253;27;20085;-76
2022/01/18 03:50:44;;;;;;;38.83;10.77;;;6.40;99.90;;;;;;5135416;27;20049;-76
2022/01/18 03:53:11;;;;;;;36.83;10.65;;;6.40;99.90;;;;;;5135843;27;20055;-77
2022/01/18 03:55:37;;;;;;;37.50;10.27;;;6.40;99.90;;;;;;5135556;27;20092;-72
2022/01/18 03:58:02;;;;;;;39.58;10.43;;;6.40;99.90;;;;;;5135455;27;20043;-76
2022/01/18 04:00:29;;;;;;;35.97;11.00;;;6.40;99.90;;;;;;5135787;27;20476;-76
2022/01/18 04:02:55;;;;;;;42.03;11.73;;;6.40;99.90;;;;;;5134837;27;20047;-76
2022/01/18 04:05:22;;;;;;;40.22;11.57;;;6.40;99.90;;;;;;5135654;27;20479;-76
2022/01/18 04:07:48;;;;;;;38.45;12.32;;;6.40;99.90;;;;;;5135053;27;20047;-76
2022/01/18 04:10:14;;;;;;;31.60;10.93;;;6.40;99.90;;;;;;5135902;27;20449;-76
2022/01/18 04:12:41;;;;;;;53.08;11.77;;;6.40;99.90;;;;;;5134667;27;20039;-72
2022/01/18 04:15:09;;;;;;;39.33;11.57;;;6.30;99.90;;;;;;5135691;27;20472;-76
2022/01/18 04:30:59;;;;;;;31.52;10.90;;;6.30;99.90;;;;;;5134950;27;20054;-76
2022/01/18 04:33:25;;;;;;;36.10;11.23;;;6.30;99.90;;;;;;5135051;27;20118;-76
2022/01/18 04:35:51;;;;;;;36.67;11.60;;;6.30;99.90;;;;;;5134466;27;20488;-76
2022/01/18 04:38:17;;;;;;;32.70;11.32;;;6.30;99.90;;;;;;5133939;27;20051;-76
2022/01/18 04:40:45;;;;;;;31.50;10.48;;;6.30;99.90;;;;;;5134871;27;20082;-72
2022/01/18 04:43:18;;;;;;;28.50;9.50;;;6.30;99.90;;;;;;5135216;27;20050;-76
2022/01/18 04:48:34;;;;;;;26.27;9.30;;;6.30;99.90;;;;;;5134618;27;20050;-76
2022/01/18 04:51:07;;;;;;;26.48;8.05;;;6.30;99.90;;;;;;5134538;27;20483;-76
2022/01/18 04:53:35;;;;;;;24.10;8.57;;;6.20;99.90;;;;;;5134683;27;20369;-77
2022/01/18 04:56:07;;;;;;;25.67;9.02;;;6.20;99.90;;;;;;5133712;27;20043;-76
2022/01/18 04:58:34;;;;;;;26.85;9.50;;;6.20;99.90;;;;;;5114393;28;20044;-77
2022/01/18 05:01:02;;;;;;;27.45;9.15;;;6.20;99.90;;;;;;5124878;27;20043;-77
2022/01/18 05:03:29;;;;;;;40.60;11.32;;;6.20;99.90;;;;;;5134792;27;20538;-77
2022/01/18 05:05:57;;;;;;;37.42;10.48;;;6.20;99.90;;;;;;5133872;27;20039;-76
2022/01/18 05:08:25;;;;;;;38.40;10.32;;;6.20;99.90;;;;;;5134665;27;20035;-77
2022/01/18 05:10:57;;;;;;;30.60;9.77;;;6.20;99.90;;;;;;5133730;27;20038;-77
2022/01/18 05:16:20;;;;;;;35.10;11.32;;;6.20;99.90;;;;;;5132760;27;20483;-77
2022/01/18 05:22:58;;;;;;;34.95;10.65;;;6.20;99.90;;;;;;5134458;27;20063;-77
2022/01/18 05:24:32;;;;;;;33.70;9.63;;;6.20;99.90;;;;;;5133787;27;20054;-77
2022/01/18 05:27:00;;;;;;;27.52;9.52;;;6.20;99.90;;;;;;5133491;27;20073;-77
2022/01/18 05:29:26;;;;;;;30.08;9.88;;;6.20;99.90;;;;;;5133993;27;20446;-78
2022/01/18 05:31:52;;;;;;;24.58;8.88;;;6.20;99.90;;;;;;5133739;27;20134;-76
2022/01/18 05:34:18;;;;;;;26.63;8.80;;;6.20;99.90;;;;;;5134176;27;20130;-78
2022/01/18 05:36:44;;;;;;;28.45;8.77;;;6.20;99.90;;;;;;5134197;27;20125;-78
2022/01/18 05:39:11;;;;;;;23.25;8.07;;;6.20;99.90;;;;;;5133169;27;20151;-78
2022/01/18 05:41:41;;;;;;;27.83;9.02;;;6.20;99.90;;;;;;5134089;27;20543;-78
2022/01/18 05:44:08;;;;;;;22.92;9.13;;;6.30;99.90;;;;;;5132669;27;20078;-78
2022/01/18 05:46:34;;;;;;;26.88;8.85;;;6.20;99.90;;;;;;5132621;27;20461;-78
2022/01/18 05:49:01;;;;;;;23.65;8.73;;;6.30;99.90;;;;;;5132136;27;20047;-78
2022/01/18 05:51:31;;;;;;;24.02;8.55;;;6.20;99.90;;;;;;5133614;27;20046;-78
2022/01/18 05:53:57;;;;;;;31.25;9.55;;;6.20;99.90;;;;;;5133322;27;20054;-77
2022/01/18 05:56:23;;;;;;;29.92;8.82;;;6.20;99.90;;;;;;5133910;27;20047;-78
2022/01/18 05:58:49;;;;;;;27.00;8.30;;;6.30;99.90;;;;;;5133801;27;20043;-78
2022/01/18 06:01:25;;;;;;;22.48;8.00;;;6.20;99.90;;;;;;5132829;27;20068;-77
2022/01/18 06:04:06;;;;;;;24.25;7.63;;;6.20;99.90;;;;;;5133826;27;20043;-78
2022/01/18 06:06:51;;;;;;;19.23;7.15;;;6.20;99.90;;;;;;5134011;27;20107;-78
2022/01/18 06:09:17;;;;;;;23.10;7.60;;;6.20;99.90;;;;;;5133360;27;20043;-78
2022/01/18 06:11:43;;;;;;;19.38;7.20;;;6.20;99.90;;;;;;5132935;27;20046;-78
2022/01/18 06:14:09;;;;;;;23.85;7.93;;;6.20;99.90;;;;;;5132680;27;20133;-78
2022/01/18 06:16:35;;;;;;;25.48;8.00;;;6.20;99.90;;;;;;5133629;27;20161;-77
2022/01/18 06:19:00;;;;;;;23.80;7.55;;;6.20;99.90;;;;;;5132935;27;20047;-78
2022/01/18 06:21:26;;;;;;;23.98;8.45;;;6.20;99.90;;;;;;5133473;28;20043;-78
2022/01/18 06:23:52;;;;;;;23.17;7.13;;;6.30;99.90;;;;;;5133802;28;20054;-78
2022/01/18 06:26:17;;;;;;;23.13;7.55;;;6.30;99.90;;;;;;5132448;28;20480;-78
2022/01/18 06:28:43;;;;;;;23.08;6.85;;;6.20;99.90;;;;;;5133433;28;20078;-78
2022/01/18 06:31:09;;;;;;;20.73;7.13;;;6.30;99.90;;;;;;5133129;28;20043;-78
2022/01/18 06:33:35;;;;;;;21.52;7.07;;;6.30;99.90;;;;;;5133690;28;20043;-78
2022/01/18 06:36:00;;;;;;;21.35;7.40;;;6.30;99.90;;;;;;5133312;27;20087;-78
2022/01/18 06:38:26;;;;;;;19.60;7.47;;;6.30;99.90;;;;;;5137523;27;20042;-78
2022/01/18 06:40:52;;;;;;;21.42;7.30;;;6.30;99.90;;;;;;5136983;27;20130;-79
2022/01/18 06:43:18;;;;;;;21.05;7.22;;;6.30;99.90;;;;;;5136955;27;20103;-79
2022/01/18 06:45:44;;;;;;;22.23;7.55;;;6.30;99.90;;;;;;5137049;27;20059;-78
2022/01/18 06:48:09;;;;;;;19.38;7.45;;;6.30;99.90;;;;;;5136903;27;20130;-78
2022/01/18 06:50:35;;;;;;;18.85;7.57;;;6.30;99.90;;;;;;5119590;27;20054;-79
2022/01/18 06:53:01;;;;;;;21.77;6.55;;;6.30;99.90;;;;;;5136008;27;20031;-78
2022/01/18 06:55:28;;;;;;;19.30;7.55;;;6.30;99.90;;;;;;5137337;27;20190;-78
2022/01/18 06:57:54;;;;;;;22.00;7.50;;;6.30;99.90;;;;;;5137214;27;20047;-79
2022/01/18 07:00:20;;;;;;;22.23;7.35;;;6.30;99.90;;;;;;5136551;27;20039;-78
2022/01/18 07:02:45;;;;;;;25.10;7.78;;;6.40;99.90;;;;;;5137356;27;20047;-79
2022/01/18 07:05:11;;;;;;;21.92;7.97;;;6.30;99.90;;;;;;5136104;27;20463;-78
2022/01/18 07:07:38;;;;;;;23.00;7.78;;;6.30;99.90;;;;;;5137076;27;20057;-79
2022/01/18 07:10:05;;;;;;;25.08;7.65;;;6.40;99.90;;;;;;5136450;27;20449;-78
2022/01/18 07:12:34;;;;;;;25.73;8.05;;;6.30;99.90;;;;;;5136993;27;20533;-79
2022/01/18 07:15:01;;;;;;;21.60;7.70;;;6.30;99.90;;;;;;5136400;27;20043;-79
2022/01/18 07:17:26;;;;;;;25.33;8.07;;;6.30;99.90;;;;;;5136619;27;20047;-79
2022/01/18 07:19:52;;;;;;;25.20;9.45;;;6.30;99.90;;;;;;5137068;27;20047;-79
2022/01/18 07:22:18;;;;;;;26.08;8.50;;;6.30;99.90;;;;;;5136264;27;20468;-79
2022/01/18 07:24:45;;;;;;;19.80;7.63;;;6.30;99.90;;;;;;5136961;27;20127;-79
2022/01/18 07:27:13;;;;;;;22.27;7.22;;;6.30;99.90;;;;;;5135758;27;20051;-78
2022/01/18 07:29:43;;;;;;;19.10;7.50;;;6.30;99.90;;;;;;5136664;27;20118;-79
2022/01/18 07:32:10;;;;;;;17.88;6.97;;;6.30;99.90;;;;;;5136076;27;20506;-79
2022/01/18 07:34:40;;;;;;;23.17;6.63;;;6.30;99.90;;;;;;5136542;27;20050;-79
2022/01/18 07:37:07;;;;;;;21.40;7.32;;;6.30;99.90;;;;;;5135828;27;20047;-78
2022/01/18 07:39:33;;;;;;;18.67;7.47;;;6.30;99.90;;;;;;5136364;27;20164;-79
2022/01/18 07:41:59;;;;;;;20.67;7.93;;;6.30;99.90;;;;;;5136625;27;20122;-79
2022/01/18 07:44:25;;;;;;;20.13;7.50;;;6.30;99.90;;;;;;5135486;27;20051;-79
2022/01/18 07:46:50;;;;;;;23.90;7.93;;;6.30;99.90;;;;;;5134879;27;20055;-79
2022/01/18 07:49:16;;;;;;;20.38;7.70;;;6.30;99.90;;;;;;5134170;28;20541;-79
2022/01/18 07:51:42;;;;;;;19.58;7.60;;;6.30;99.90;;;;;;5134945;28;20043;-81
2022/01/18 07:54:08;;;;;;;23.05;7.78;;;6.30;99.90;;;;;;5133594;28;20042;-72
2022/01/18 07:56:34;;;;;;;22.38;7.18;;;6.30;99.90;;;;;;5135032;27;20506;-79
2022/01/18 07:59:00;;;;;;;22.13;7.40;;;6.30;99.90;;;;;;5134612;27;20492;-80
2022/01/18 08:01:26;;;;;;;21.38;7.53;;;6.30;99.90;;;;;;5134320;28;20066;-79
2022/01/18 08:03:51;;;;;;;18.35;7.43;;;6.30;99.90;;;;;;5134896;27;20043;-79
2022/01/18 08:06:17;;;;;;;20.77;7.47;;;6.30;99.90;;;;;;5134277;28;20105;-79
2022/01/18 08:08:43;;;;;;;17.98;6.93;;;6.20;99.90;;;;;;5134505;27;20087;-79
2022/01/18 08:11:08;;;;;;;24.10;8.07;;;6.20;99.90;;;;;;5134414;28;20082;-73
2022/01/18 08:13:40;;;;;;;20.38;7.45;;;6.30;99.90;;;;;;5133704;27;20130;-78
2022/01/18 08:16:22;;;;;;;23.42;7.72;;;6.30;99.90;;;;;;5134634;27;20126;-80
2022/01/18 08:18:49;;;;;;;23.60;7.88;;;6.30;99.90;;;;;;5134719;27;20039;-80
2022/01/18 08:21:15;;;;;;;22.42;7.75;;;6.30;99.90;;;;;;5134076;27;20407;-79
2022/01/18 08:23:41;;;;;;;22.33;7.68;;;6.30;99.90;;;;;;5133997;27;20046;-80
2022/01/18 08:26:07;;;;;;;25.60;9.15;;;6.30;99.90;;;;;;5134649;27;20415;-80
2022/01/18 08:28:33;;;;;;;25.88;9.15;;;6.30;99.90;;;;;;5133602;28;20039;-80
2022/01/18 08:30:58;;;;;;;29.17;10.25;;;6.30;99.90;;;;;;5134292;28;20050;-80
2022/01/18 08:33:24;;;;;;;29.38;9.68;;;6.30;99.90;;;;;;5133853;27;20047;-80
2022/01/18 08:35:50;;;;;;;30.70;11.18;;;6.30;99.90;;;;;;5134091;27;20044;-81
2022/01/18 08:38:16;;;;;;;24.90;9.95;;;6.30;99.90;;;;;;5132847;27;20088;-81
2022/01/18 08:40:42;;;;;;;27.85;11.52;;;6.40;99.90;;;;;;5133980;27;20068;-81
2022/01/18 08:43:08;;;;;;;27.95;10.57;;;6.30;99.90;;;;;;5126510;27;20039;-80
2022/01/18 08:45:34;;;;;;;28.48;10.38;;;6.30;99.90;;;;;;5089023;27;1093803;-80
2022/01/18 08:48:00;;;;;;;27.88;10.32;;;6.30;99.90;;;;;;5130622;27;20062;-76
2022/01/18 08:50:26;;;;;;;22.95;10.40;;;6.30;99.90;;;;;;5130622;27;20460;-81
2022/01/18 08:52:52;;;;;;;25.05;10.43;;;6.30;99.90;;;;;;5131644;27;20043;-81
2022/01/18 08:55:20;;;;;;;25.30;9.75;;;6.40;99.90;;;;;;5130481;27;20047;-77
2022/01/18 08:57:46;;;;;;;21.98;10.75;;;6.40;99.90;;;;;;5126139;27;20093;-81
2022/01/18 09:00:14;;;;;;;23.27;10.35;;;6.40;99.90;;;;;;5127431;27;20039;-81
2022/01/18 09:02:41;;;;;;;23.30;9.13;;;6.40;99.90;;;;;;5128911;27;20032;-76
2022/01/18 09:05:07;;;;;;;25.00;9.20;;;6.40;99.90;;;;;;5129467;27;20391;-81
2022/01/18 09:07:35;;;;;;;23.20;9.77;;;6.50;99.90;;;;;;5128510;27;20031;-78
2022/01/18 09:10:06;;;;;;;23.98;9.30;;;6.50;99.90;;;;;;5130048;27;20118;-76
2022/01/18 09:12:32;;;;;;;21.27;8.77;;;6.50;99.90;;;;;;5130281;27;20043;-81
2022/01/18 09:15:00;;;;;;;21.92;9.05;;;6.50;99.90;;;;;;5138374;27;20050;-81
2022/01/18 09:17:28;;;;;;;20.70;8.88;;;6.50;99.90;;;;;;5130671;27;20035;-77
2022/01/18 09:19:54;;;;;;;19.15;9.25;;;6.50;99.90;;;;;;5130090;27;20043;-80
2022/01/18 09:22:20;;;;;;;21.10;9.05;;;6.60;99.90;;;;;;5130105;27;20039;-80
2022/01/18 09:24:46;;;;;;;22.05;9.52;;;6.60;99.90;;;;;;5130540;27;20042;-76
2022/01/18 09:27:12;;;;;;;25.33;9.75;;;6.60;99.90;;;;;;5130003;27;20035;-82
2022/01/18 09:29:39;;;;;;;21.35;10.15;;;6.60;99.90;;;;;;5129652;27;20181;-82
2022/01/18 09:32:06;;;;;;;21.92;10.00;;;6.60;99.90;;;;;;5130461;27;20114;-78
2022/01/18 09:34:32;;;;;;;21.35;9.77;;;6.60;99.90;;;;;;5132401;27;20114;-81
2022/01/18 09:36:58;;;;;;;21.55;10.48;;;6.70;99.90;;;;;;5131840;27;20100;-82
2022/01/18 09:39:25;;;;;;;19.73;9.48;;;6.70;99.90;;;;;;5131052;27;20035;-77
2022/01/18 09:41:54;;;;;;;23.23;9.63;;;6.70;99.90;;;;;;5130308;27;20110;-82
2022/01/18 09:44:21;;;;;;;20.38;10.13;;;6.70;99.90;;;;;;5129006;27;20042;-74
2022/01/18 09:46:51;;;;;;;20.80;10.13;;;6.70;99.90;;;;;;5129716;27;20735;-75
2022/01/18 09:49:18;;;;;;;22.10;10.25;;;6.70;99.90;;;;;;5128602;27;20059;-82
2022/01/18 09:51:44;;;;;;;18.85;9.77;;;6.70;99.90;;;;;;5132657;27;20039;-80
2022/01/18 09:54:10;;;;;;;22.85;10.05;;;6.70;99.90;;;;;;5133411;27;20043;-81
2022/01/18 09:56:36;;;;;;;19.25;9.98;;;6.70;99.90;;;;;;5132832;27;20100;-80
2022/01/18 09:59:03;;;;;;;23.65;10.82;;;6.70;99.90;;;;;;5133121;27;20043;-81
2022/01/18 10:01:29;;;;;;;20.25;9.70;;;6.70;99.90;;;;;;5132710;27;20051;-81
2022/01/18 10:04:16;;;;;;;17.63;10.13;;;6.80;99.90;;;;;;5132968;27;20492;-81
2022/01/18 10:06:42;;;;;;;21.50;10.02;;;6.80;99.90;;;;;;5132699;27;20087;-81
2022/01/18 10:09:16;;;;;;;18.42;9.30;;;6.80;99.90;;;;;;5129784;27;20034;-80
2022/01/18 10:12:13;;;;;;;16.08;9.55;;;6.70;99.90;;;;;;5130819;27;20859;-81
2022/01/18 10:14:43;;;;;;;17.67;8.93;;;6.70;99.90;;;;;;5132980;27;20102;-81
2022/01/18 10:17:10;;;;;;;15.00;9.05;;;6.80;99.90;;;;;;5133423;27;20039;-81
2022/01/18 10:19:47;;;;;;;16.67;8.88;;;6.80;99.90;;;;;;5132972;27;20027;-81
2022/01/18 10:22:17;;;;;;;16.58;9.18;;;6.80;99.90;;;;;;5133434;27;20074;-80
2022/01/18 10:24:44;;;;;;;16.23;9.25;;;6.80;99.90;;;;;;5112882;28;20039;-81
2022/01/18 10:27:12;;;;;;;12.60;7.75;;;6.70;99.90;;;;;;5135514;27;20096;-82
2022/01/18 10:29:44;;;;;;;14.52;7.65;;;6.80;99.90;;;;;;5132462;28;20042;-81
2022/01/18 10:37:17;;;;;;;15.32;8.10;;;6.80;99.90;;;;;;5132720;27;20060;-81
2022/01/18 10:39:58;;;;;;;13.27;7.47;;;6.80;99.90;;;;;;5132352;27;20031;-81
2022/01/18 10:42:35;;;;;;;12.90;7.63;;;6.90;99.90;;;;;;5132782;28;20349;-81
2022/01/18 10:45:22;;;;;;;15.27;7.82;;;6.90;99.90;;;;;;5131073;28;20055;-81
2022/01/18 10:47:57;;;;;;;15.10;8.02;;;6.90;99.90;;;;;;5128215;28;20492;-80
2022/01/18 10:50:24;;;;;;;16.45;9.45;;;6.90;99.90;;;;;;5129968;27;20114;-81
2022/01/18 10:52:52;;;;;;;17.67;9.30;;;7.00;99.90;;;;;;5131619;27;20055;-81
2022/01/18 10:55:23;;;;;;;16.02;9.35;;;7.00;99.90;;;;;;5131552;28;20039;-80
2022/01/18 10:57:50;;;;;;;16.88;8.98;;;7.00;99.90;;;;;;5131272;27;20100;-81
2022/01/18 11:00:22;;;;;;;15.13;8.30;;;7.00;99.90;;;;;;5127585;28;20061;-81
2022/01/18 11:02:50;;;;;;;12.55;7.32;;;7.00;99.90;;;;;;5130365;28;20095;-79
2022/01/18 11:05:26;;;;;;;13.63;8.05;;;7.00;99.90;;;;;;5128836;28;20088;-80
2022/01/18 11:07:54;;;;;;;12.63;7.05;;;7.00;99.90;;;;;;5127164;28;20368;-81
2022/01/18 11:10:23;;;;;;;11.60;7.10;;;7.00;99.90;;;;;;5131297;28;20123;-81
2022/01/18 11:13:07;;;;;;;12.45;7.28;;;7.10;99.90;;;;;;5125701;27;20040;-79
2022/01/18 11:15:37;;;;;;;12.50;7.38;;;7.10;99.90;;;;;;5129740;28;20035;-80
2022/01/18 11:18:07;;;;;;;13.38;7.47;;;7.10;99.90;;;;;;5127210;27;20059;-81
2022/01/18 11:20:39;;;;;;;10.88;7.00;;;7.10;99.90;;;;;;5130279;28;20039;-81
2022/01/18 11:23:06;;;;;;;12.60;6.68;;;7.20;99.90;;;;;;5130902;27;20051;-82
2022/01/18 11:25:36;;;;;;;12.02;7.00;;;7.20;99.90;;;;;;5133112;27;20078;-80
2022/01/18 11:28:02;;;;;;;10.65;6.53;;;7.20;99.90;;;;;;5135647;27;20126;-81
2022/01/18 11:30:32;;;;;;;10.80;6.55;;;7.20;99.90;;;;;;5135674;27;20051;-81
2022/01/18 11:33:00;;;;;;;11.57;6.65;;;7.30;99.90;;;;;;5133515;27;20043;-81
2022/01/18 11:35:42;;;;;;;11.27;6.75;;;7.20;99.90;;;;;;5133705;27;20050;-81
2022/01/18 11:38:16;;;;;;;11.48;7.15;;;7.30;99.90;;;;;;5134820;27;20468;-81
2022/01/18 11:40:54;;;;;;;10.63;7.32;;;7.30;99.90;;;;;;5134895;27;20046;-81
2022/01/18 11:43:38;;;;;;;11.13;7.35;;;7.40;99.90;;;;;;5134345;27;20058;-81
2022/01/18 11:46:26;;;;;;;11.40;7.32;;;7.40;99.90;;;;;;5134099;27;20055;-82
2022/01/18 11:49:02;;;;;;;10.82;6.53;;;7.40;99.90;;;;;;5134987;27;20047;-81
2022/01/18 11:52:04;;;;;;;10.57;6.90;;;7.40;99.90;;;;;;5135441;27;20066;-82
2022/01/18 11:57:21;;;;;;;11.57;6.20;;;7.40;99.90;;;;;;5136045;27;20404;-80
2022/01/18 11:59:49;;;;;;;10.10;7.05;;;7.40;99.90;;;;;;5135464;27;20039;-80
2022/01/18 12:02:56;;;;;;;10.65;6.78;;;7.40;99.90;;;;;;5136065;27;20086;-80
2022/01/18 12:05:24;;;;;;;10.88;7.40;;;7.40;99.90;;;;;;5055655;28;20592;-80
2022/01/18 12:07:53;;;;;;;11.32;6.80;;;7.50;99.90;;;;;;5088829;28;20128;-79
2022/01/18 12:10:28;;;;;;;11.30;6.88;;;7.50;99.90;;;;;;5105643;27;20055;-80
2022/01/18 12:12:54;;;;;;;9.13;6.60;;;7.50;99.90;;;;;;5134797;27;20126;-80
2022/01/18 12:15:23;;;;;;;9.63;6.75;;;7.50;99.90;;;;;;5135817;27;20441;-80
2022/01/18 12:17:57;;;;;;;9.07;6.40;;;7.60;99.90;;;;;;5135158;27;20085;-80
2022/01/18 12:20:40;;;;;;;9.65;6.35;;;7.50;99.90;;;;;;5135785;27;20039;-80
2022/01/18 12:23:06;;;;;;;9.88;6.93;;;7.60;99.90;;;;;;5135562;27;20093;-80
2022/01/18 12:25:35;;;;;;;8.68;5.20;;;7.50;99.90;;;;;;5135617;27;20051;-81
2022/01/18 12:28:47;;;;;;;8.05;4.90;;;7.50;99.90;;;;;;5133345;27;20039;-80
2022/01/18 12:34:30;;;;;;;9.30;4.45;;;7.60;99.90;;;;;;5134582;27;20043;-80
2022/01/18 12:37:21;;;;;;;8.90;4.75;;;7.50;99.90;;;;;;5134843;27;20122;-79
2022/01/18 12:39:50;;;;;;;8.27;4.22;;;7.50;99.90;;;;;;5134460;27;20064;-79
2022/01/18 12:44:20;;;;;;;7.90;5.20;;;7.50;99.90;;;;;;5135306;27;20534;-80
2022/01/18 12:45:05;;;;;;;9.80;5.70;;;7.40;99.90;;;;;;5134406;27;20055;-79
2022/01/18 12:47:35;;;;;;;8.23;4.65;;;7.40;99.90;;;;;;5135125;27;20055;-79
2022/01/18 12:50:01;;;;;;;8.15;4.43;;;7.30;99.90;;;;;;5134392;27;20043;-79
2022/01/18 12:52:43;;;;;;;9.45;5.22;;;7.40;99.90;;;;;;5135087;27;20054;-79
2022/01/18 12:55:31;;;;;;;8.40;5.03;;;7.30;99.90;;;;;;5134864;27;20043;-80
2022/01/18 12:58:10;;;;;;;7.22;4.35;;;7.30;99.90;;;;;;5134428;27;20487;-79
2022/01/18 13:00:49;;;;;;;8.35;4.75;;;7.30;99.90;;;;;;5134791;27;20050;-80
2022/01/18 13:03:25;;;;;;;10.10;5.10;;;7.30;99.90;;;;;;5134632;27;20118;-80
2022/01/18 13:05:58;;;;;;;10.85;4.60;;;7.30;99.90;;;;;;5134348;27;20046;-80
2022/01/18 13:08:47;;;;;;;8.75;5.10;;;7.20;99.90;;;;;;5134561;27;20035;-79
2022/01/18 13:11:21;;;;;;;8.52;4.63;;;7.20;99.90;;;;;;5134058;27;20058;-79
2022/01/18 13:14:03;;;;;;;9.82;4.55;;;7.20;99.90;;;;;;5134140;27;20076;-72
2022/01/18 13:29:49;;;;;;;5.22;3.67;;;7.20;99.90;;;;;;5134262;27;20054;-80
2022/01/18 13:32:19;;;;;;;8.18;3.92;;;7.20;99.90;;;;;;5133761;27;20057;-79
2022/01/18 13:34:48;;;;;;;8.13;4.07;;;7.20;99.90;;;;;;5134400;27;20133;-79
2022/01/18 13:37:16;;;;;;;10.45;3.83;;;7.20;99.90;;;;;;5133906;27;20134;-79
2022/01/18 13:39:50;;;;;;;9.43;3.90;;;7.20;99.90;;;;;;5134163;27;20086;-79
2022/01/18 13:42:25;;;;;;;10.50;4.32;;;7.20;99.90;;;;;;5133719;27;20047;-79
2022/01/18 13:45:11;;;;;;;11.52;3.47;;;7.30;99.90;;;;;;5133482;27;20487;-72
2022/01/18 13:48:00;;;;;;;8.75;3.45;;;7.30;99.90;;;;;;5134139;27;20134;-79
2022/01/18 13:50:44;;;;;;;7.40;4.18;;;7.30;99.90;;;;;;5124282;27;20139;-78
2022/01/18 13:53:18;;;;;;;9.77;4.38;;;7.30;99.90;;;;;;5133009;27;20121;-79
2022/01/18 13:55:48;;;;;;;10.02;4.13;;;7.30;99.90;;;;;;5133916;27;20172;-79
2022/01/18 13:58:26;;;;;;;10.18;4.38;;;7.20;99.90;;;;;;5133320;27;20043;-79
2022/01/18 14:00:52;;;;;;;8.77;3.92;;;7.30;99.90;;;;;;5133832;27;20049;-72
2022/01/18 14:03:32;;;;;;;9.63;4.47;;;7.30;99.90;;;;;;5131708;27;20391;-79
2022/01/18 14:05:59;;;;;;;9.82;4.50;;;7.30;99.90;;;;;;5112761;28;20400;-79
2022/01/18 14:08:35;;;;;;;9.57;4.13;;;7.30;99.90;;;;;;5133143;27;20143;-79
2022/01/18 14:11:10;;;;;;;9.38;4.28;;;7.30;99.90;;;;;;5132912;27;20043;-78
2022/01/18 14:13:37;;;;;;;12.60;5.40;;;7.30;99.90;;;;;;5133450;27;20047;-79
2022/01/18 14:16:31;;;;;;;12.80;5.35;;;7.30;99.90;;;;;;5133165;27;20050;-79
2022/01/18 14:19:01;;;;;;;11.57;5.07;;;7.30;99.90;;;;;;5133061;27;20040;-73
2022/01/18 14:21:30;;;;;;;;;;;7.30;99.90;;;;;;5132776;27;20391;-80
2022/01/18 14:24:18;;;;;;;10.10;5.15;;;7.30;99.90;;;;;;5132859;27;19919;-72
2022/01/18 14:26:53;;;;;;;9.02;5.15;;;7.20;99.90;;;;;;5133798;27;20054;-79
2022/01/18 14:29:43;;;;;;;9.55;5.15;;;7.20;99.90;;;;;;5132007;28;20499;-79